Time;durP1;ratioP1;P1;durP2;ratioP2;P2;SDS_P1;SDS_P2;PMS_P1;PMS_P2;Temp;Humidity;BMP_temperature;BMP_pressure;BME280_temperature;BME280_humidity;BME280_pressure;Samples;Min_cycle;Max_cycle;Signal;HPM_P1;HPM_P2
2023/08/04 00:01:12;;;;;;;3.95;1.05;;;;;;;-145.00;72.66;72951.34;5036784;28;20041;-77
2023/08/04 00:03:38;;;;;;;3.05;1.23;;;;;;;-145.00;73.38;72963.84;5036751;28;20065;-76
2023/08/04 00:06:08;;;;;;;2.30;0.90;;;;;;;-145.00;73.90;72978.41;5036309;28;20038;-77
2023/08/04 00:08:35;;;;;;;2.88;1.20;;;;;;;-145.00;74.84;72976.34;5034451;28;20670;-76
2023/08/04 00:11:01;;;;;;;5.47;1.23;;;;;;;-145.00;75.32;72970.09;5030628;28;20054;-77
2023/08/04 00:13:28;;;;;;;3.78;1.20;;;;;;;-145.00;75.38;72961.75;5042785;28;20095;-76
2023/08/04 00:15:56;;;;;;;3.90;1.27;;;;;;;-145.00;75.69;72951.34;5035682;28;20049;-76
2023/08/04 00:18:22;;;;;;;3.13;1.50;;;;;;;-145.00;76.15;72951.34;5041852;28;20128;-76
2023/08/04 00:20:49;;;;;;;3.20;1.25;;;;;;;-145.00;75.49;72951.34;5033366;28;20720;-76
2023/08/04 00:23:15;;;;;;;3.38;1.23;;;;;;;-145.00;75.30;72968.00;5032940;28;20050;-76
2023/08/04 00:25:43;;;;;;;2.38;1.23;;;;;;;-145.00;76.52;73011.72;5032875;28;20056;-77
2023/08/04 00:28:09;;;;;;;3.67;1.30;;;;;;;-145.00;76.87;72997.16;5033536;28;20052;-77
2023/08/04 00:30:36;;;;;;;3.97;1.23;;;;;;;-145.00;76.71;72984.66;5027293;28;20065;-76
2023/08/04 00:33:04;;;;;;;5.10;1.25;;;;;;;-145.00;76.53;72993.00;5032956;28;20431;-76
2023/08/04 00:35:30;;;;;;;2.72;1.38;;;;;;;-145.00;76.23;72988.81;5031629;28;20050;-75
2023/08/04 00:37:57;;;;;;;3.30;1.02;;;;;;;-145.00;76.46;72986.75;5025219;28;20042;-76
2023/08/04 00:40:23;;;;;;;6.13;1.50;;;;;;;-145.00;76.68;73022.13;5032744;28;20045;-77
2023/08/04 00:42:49;;;;;;;2.65;1.23;;;;;;;-145.00;76.59;73005.47;5032524;28;20052;-75
2023/08/04 00:45:16;;;;;;;3.20;1.30;;;;;;;-145.00;77.23;73007.56;5036947;28;20033;-77
2023/08/04 00:47:42;;;;;;;2.80;1.20;;;;;;;-145.00;77.36;72988.81;5031720;28;20052;-75
2023/08/04 00:50:11;;;;;;;4.90;1.52;;;;;;;-145.00;77.70;73005.47;5032212;28;20719;-76
2023/08/04 00:52:39;;;;;;;4.18;1.55;;;;;;;-145.00;78.60;73015.88;5032330;28;20497;-76
2023/08/04 00:55:08;;;;;;;3.55;1.25;;;;;;;-145.00;77.82;73013.81;5032111;28;20037;-76
2023/08/04 00:57:37;;;;;;;5.00;1.38;;;;;;;-145.00;78.72;73042.97;5038958;28;20077;-76
2023/08/04 01:00:04;;;;;;;5.05;1.45;;;;;;;-145.00;79.27;73034.63;5030767;28;20053;-76
2023/08/04 01:02:31;;;;;;;2.75;1.25;;;;;;;-145.00;78.69;73026.31;5032278;28;20048;-76
2023/08/04 01:04:57;;;;;;;3.17;1.38;;;;;;;-145.00;79.37;73055.44;5034535;28;20041;-77
2023/08/04 01:07:28;;;;;;;4.75;1.50;;;;;;;-145.00;79.23;73022.13;5027654;28;20041;-76
2023/08/04 01:10:05;;;;;;;4.10;1.55;;;;;;;-145.00;79.17;73030.47;5038014;28;20076;-76
2023/08/04 01:12:40;;;;;;;4.38;1.40;;;;;;;-145.00;80.14;73063.78;5036767;28;20674;-76
2023/08/04 01:15:09;;;;;;;2.55;1.23;;;;;;;-145.00;79.60;73038.78;5043801;28;21083;-77
2023/08/04 01:17:36;;;;;;;3.80;1.65;;;;;;;-145.00;79.01;73015.88;5044262;28;20049;-76
2023/08/04 01:20:04;;;;;;;4.57;1.40;;;;;;;-145.00;78.30;73005.47;5026856;28;20046;-77
2023/08/04 01:22:33;;;;;;;2.65;1.40;;;;;;;-145.00;77.82;72984.66;5034155;28;20103;-77
2023/08/04 01:25:00;;;;;;;2.53;1.40;;;;;;;-145.00;77.90;72988.81;5034213;28;20482;-77
2023/08/04 01:27:32;;;;;;;2.42;1.30;;;;;;;-145.00;77.76;72982.59;5043043;28;20549;-76
2023/08/04 01:30:02;;;;;;;4.57;1.50;;;;;;;-145.00;77.99;72993.00;5043446;28;20547;-76
2023/08/04 01:32:30;;;;;;;4.28;1.40;;;;;;;-145.00;79.63;73045.03;5033836;28;20040;-77
2023/08/04 01:34:57;;;;;;;2.97;1.45;;;;;;;-145.00;80.49;73090.84;5028763;28;20056;-77
2023/08/04 01:37:23;;;;;;;3.03;1.20;;;;;;;-145.00;80.62;73072.09;5030325;28;20514;-77
2023/08/04 01:39:51;;;;;;;3.40;1.35;;;;;;;-145.00;80.84;73080.44;5034299;28;20049;-76
2023/08/04 01:42:18;;;;;;;3.42;1.60;;;;;;;-145.00;80.02;73047.13;5033067;28;20400;-77
2023/08/04 01:44:44;;;;;;;3.00;1.55;;;;;;;-145.00;79.99;73059.59;5033188;28;20417;-77
2023/08/04 01:47:11;;;;;;;3.88;1.48;;;;;;;-145.00;79.26;73028.38;5033016;28;20152;-76
2023/08/04 01:49:37;;;;;;;3.40;1.38;;;;;;;-145.00;79.01;73011.72;5033728;28;20049;-77
2023/08/04 01:52:05;;;;;;;5.07;1.45;;;;;;;-145.00;78.83;73005.47;5032581;28;20049;-77
2023/08/04 01:54:31;;;;;;;4.03;1.25;;;;;;;-145.00;78.30;72970.09;5033610;28;20468;-77
2023/08/04 01:56:59;;;;;;;2.58;1.50;;;;;;;-145.00;78.22;72970.09;5030840;28;20048;-77
2023/08/04 01:59:25;;;;;;;5.60;1.60;;;;;;;-145.00;78.02;72968.00;5032685;28;20041;-76
2023/08/04 02:01:52;;;;;;;2.55;1.20;;;;;;;-145.00;77.61;72953.44;5024858;28;20052;-77
2023/08/04 02:04:18;;;;;;;3.42;1.45;;;;;;;-145.00;77.73;72957.59;5032916;28;20136;-75
2023/08/04 02:06:45;;;;;;;4.75;1.50;;;;;;;-145.00;77.48;72949.28;5032416;28;20045;-76
2023/08/04 02:09:13;;;;;;;2.70;1.40;;;;;;;-145.00;77.22;72947.19;5028731;28;20053;-76
2023/08/04 02:11:40;;;;;;;4.53;1.20;;;;;;;-145.00;77.13;72934.69;5033011;28;20049;-77
2023/08/04 02:14:08;;;;;;;4.43;1.38;;;;;;;-145.00;76.50;72928.44;5031842;28;20050;-77
2023/08/04 02:16:35;;;;;;;3.17;1.30;;;;;;;-145.00;76.71;72961.75;5031987;28;20041;-77
2023/08/04 02:19:04;;;;;;;3.45;1.38;;;;;;;-145.00;78.43;72993.00;5032510;28;20042;-76
2023/08/04 02:21:31;;;;;;;5.15;1.60;;;;;;;-145.00;78.07;72980.50;5032565;28;20132;-77
2023/08/04 02:23:58;;;;;;;5.47;1.50;;;;;;;-145.00;77.58;72947.19;5024905;28;20042;-76
2023/08/04 02:26:25;;;;;;;2.15;1.30;;;;;;;-145.00;76.99;72930.53;5028409;28;20058;-76
2023/08/04 02:28:53;;;;;;;4.13;1.40;;;;;;;-145.00;75.80;72913.88;5029891;28;20077;-76
2023/08/04 02:31:23;;;;;;;2.20;1.30;;;;;;;-145.00;75.81;72915.97;5028190;28;20045;-76
2023/08/04 02:33:50;;;;;;;5.05;1.55;;;;;;;-145.00;76.34;72924.28;5028930;28;20107;-77
2023/08/04 02:36:17;;;;;;;3.88;1.40;;;;;;;-145.00;76.04;72922.22;5031876;28;20390;-76
2023/08/04 02:38:44;;;;;;;2.60;1.40;;;;;;;-145.00;77.59;72976.34;5032039;28;20041;-77
2023/08/04 02:41:10;;;;;;;4.78;1.42;;;;;;;-145.00;78.86;73030.47;5028453;28;20072;-77
2023/08/04 02:43:38;;;;;;;3.72;1.30;;;;;;;-145.00;80.05;73030.47;5029785;28;20409;-77
2023/08/04 02:46:05;;;;;;;3.90;1.33;;;;;;;-145.00;79.45;73042.97;5031667;28;20545;-77
2023/08/04 02:48:33;;;;;;;4.47;1.35;;;;;;;-145.00;79.20;73038.78;5040831;28;20673;-76
2023/08/04 02:51:02;;;;;;;3.60;1.30;;;;;;;-145.00;77.87;72997.16;5040415;28;20051;-77
2023/08/04 02:53:28;;;;;;;3.28;1.40;;;;;;;-145.00;77.65;72993.00;5031375;28;20052;-77
2023/08/04 02:55:55;;;;;;;2.65;1.33;;;;;;;-145.00;77.34;72957.59;5031198;28;20048;-77
2023/08/04 02:58:22;;;;;;;3.08;1.33;;;;;;;-145.00;76.82;72947.19;5031375;28;20091;-77
2023/08/04 03:00:49;;;;;;;5.93;1.60;;;;;;;-145.00;76.00;72934.69;5030895;28;20512;-77
2023/08/04 03:03:16;;;;;;;4.68;1.48;;;;;;;-145.00;75.86;72940.94;5039274;28;20501;-76
2023/08/04 03:05:43;;;;;;;2.15;1.20;;;;;;;-145.00;75.77;72934.69;5031891;28;20099;-76
2023/08/04 03:08:10;;;;;;;2.70;1.15;;;;;;;-145.00;75.41;72930.53;5024061;28;20048;-77
2023/08/04 03:10:40;;;;;;;2.15;1.10;;;;;;;-145.00;74.55;72943.03;5037191;28;20044;-77
2023/08/04 03:13:06;;;;;;;4.88;1.40;;;;;;;-145.00;74.73;72943.03;5041173;28;20572;-77
2023/08/04 03:15:32;;;;;;;4.07;1.15;;;;;;;-145.00;74.51;72949.28;5031250;28;20041;-77
2023/08/04 03:17:59;;;;;;;3.85;1.42;;;;;;;-145.00;75.24;72980.50;5027717;28;20045;-76
2023/08/04 03:20:26;;;;;;;2.45;1.45;;;;;;;-145.00;75.25;72970.09;5030709;28;20052;-77
2023/08/04 03:22:53;;;;;;;4.55;1.40;;;;;;;-145.00;75.67;72990.91;5031304;28;20140;-77
2023/08/04 03:25:20;;;;;;;2.78;1.52;;;;;;;-145.00;75.75;72997.16;5030321;28;20061;-76
2023/08/04 03:27:46;;;;;;;3.95;1.48;;;;;;;-145.00;75.22;72976.34;5025124;28;20038;-76
2023/08/04 03:30:13;;;;;;;2.20;1.15;;;;;;;-145.00;75.00;72957.59;5020865;28;20041;-77
2023/08/04 03:32:39;;;;;;;2.53;1.27;;;;;;;-145.00;74.86;72959.69;5025834;28;20050;-77
2023/08/04 03:35:07;;;;;;;5.78;1.92;;;;;;;-145.00;75.13;72963.84;5030752;28;20045;-78
2023/08/04 03:37:34;;;;;;;2.72;1.30;;;;;;;-145.00;75.04;72961.75;5052011;28;20047;-77
2023/08/04 03:40:02;;;;;;;3.00;1.30;;;;;;;-145.00;75.09;72959.69;5033711;28;20076;-77
2023/08/04 03:42:28;;;;;;;2.97;1.30;;;;;;;-145.00;75.18;72968.00;5035351;28;20050;-78
2023/08/04 03:44:55;;;;;;;3.50;1.55;;;;;;;-145.00;75.12;72965.94;5033877;28;20252;-77
2023/08/04 03:47:21;;;;;;;3.80;1.50;;;;;;;-145.00;75.14;72984.66;5036398;28;20053;-76
2023/08/04 03:49:48;;;;;;;3.25;1.50;;;;;;;-145.00;75.70;72986.75;5042886;28;20044;-77
2023/08/04 03:52:15;;;;;;;3.33;1.30;;;;;;;-145.00;75.54;72988.81;5040655;28;20049;-77
2023/08/04 03:54:41;;;;;;;2.28;1.40;;;;;;;-145.00;74.84;72978.41;5041326;28;20049;-76
2023/08/04 03:57:09;;;;;;;3.30;1.27;;;;;;;-145.00;74.46;72984.66;5023948;28;20050;-76
2023/08/04 03:59:36;;;;;;;5.22;1.65;;;;;;;-145.00;74.59;72988.81;5032176;28;20045;-76
2023/08/04 04:02:02;;;;;;;3.85;1.45;;;;;;;-145.00;74.50;72997.16;5023476;28;20056;-76
2023/08/04 04:04:28;;;;;;;4.35;1.58;;;;;;;-145.00;74.89;73009.66;5021099;28;20052;-76
2023/08/04 04:06:55;;;;;;;4.40;1.67;;;;;;;-145.00;74.78;72995.06;5028062;28;20060;-76
2023/08/04 04:09:21;;;;;;;3.08;1.20;;;;;;;-145.00;74.67;73005.47;5031874;28;20064;-75
2023/08/04 04:11:48;;;;;;;2.28;0.93;;;;;;;-145.00;74.22;72990.91;5031313;28;20053;-77
2023/08/04 04:14:16;;;;;;;2.08;1.10;;;;;;;-145.00;73.86;72986.75;5030049;28;20045;-77
2023/08/04 04:16:42;;;;;;;3.88;1.23;;;;;;;-145.00;74.02;73009.66;5035330;28;20603;-77
2023/08/04 04:19:09;;;;;;;4.05;1.40;;;;;;;-145.00;74.15;72988.81;5023464;28;20045;-76
2023/08/04 04:21:35;;;;;;;3.28;1.30;;;;;;;-145.00;73.59;73001.31;5031294;28;20052;-77
2023/08/04 04:24:02;;;;;;;2.90;1.30;;;;;;;-145.00;73.66;72984.66;5039295;28;20057;-76
2023/08/04 04:26:28;;;;;;;2.88;1.23;;;;;;;-145.00;73.76;72986.75;5022678;28;20042;-76
2023/08/04 04:28:55;;;;;;;3.55;1.40;;;;;;;-145.00;73.62;72976.34;5031292;28;20051;-76
2023/08/04 04:31:23;;;;;;;2.80;1.33;;;;;;;-145.00;73.02;72976.34;5030075;28;20050;-76
2023/08/04 04:33:49;;;;;;;4.53;1.65;;;;;;;-145.00;73.13;72972.16;5025273;28;20050;-77
2023/08/04 04:36:16;;;;;;;6.45;1.60;;;;;;;-145.00;73.24;72988.81;5028837;28;20519;-75
2023/08/04 04:38:43;;;;;;;2.88;1.20;;;;;;;-145.00;72.93;72978.41;5031790;28;20049;-76
2023/08/04 04:41:10;;;;;;;3.30;1.48;;;;;;;-145.00;72.94;72976.34;5034525;28;20675;-76
2023/08/04 04:43:36;;;;;;;3.55;1.20;;;;;;;-145.00;73.21;72972.16;5030636;28;20116;-75
2023/08/04 04:46:03;;;;;;;2.00;1.05;;;;;;;-145.00;71.83;72961.75;5022882;28;20050;-77
2023/08/04 04:48:31;;;;;;;4.50;1.15;;;;;;;-145.00;71.70;72953.44;5036238;28;20416;-76
2023/08/04 04:50:57;;;;;;;3.95;1.10;;;;;;;-145.00;71.16;72959.69;5034289;28;20052;-77
2023/08/04 04:53:24;;;;;;;3.50;1.42;;;;;;;-145.00;70.82;72963.84;5036265;28;20048;-77
2023/08/04 04:55:51;;;;;;;2.97;1.13;;;;;;;-145.00;70.19;72965.94;5036413;28;20580;-76
2023/08/04 04:58:17;;;;;;;3.45;0.98;;;;;;;-145.00;70.19;72972.16;5043144;28;20045;-76
2023/08/04 05:00:44;;;;;;;2.03;1.10;;;;;;;-145.00;70.04;72963.84;5034426;28;20048;-77
2023/08/04 05:03:10;;;;;;;4.38;1.30;;;;;;;-145.00;70.69;72984.66;5042047;28;20087;-77
2023/08/04 05:05:38;;;;;;;1.23;0.90;;;;;;;-145.00;70.99;72988.81;5048212;28;20501;-76
2023/08/04 05:08:05;;;;;;;3.35;1.10;;;;;;;-145.00;72.67;73042.97;5042954;28;20045;-76
2023/08/04 05:10:32;;;;;;;4.40;1.33;;;;;;;-145.00;71.27;72997.16;5056538;28;20101;-76
2023/08/04 05:12:58;;;;;;;2.40;1.10;;;;;;;-145.00;70.90;72982.59;5040514;28;20042;-76
2023/08/04 05:15:25;;;;;;;2.28;1.00;;;;;;;-145.00;72.33;73051.28;5038463;28;20136;-77
2023/08/04 05:17:51;;;;;;;2.60;1.30;;;;;;;-145.00;72.42;73065.84;5052575;28;20060;-76
2023/08/04 05:20:18;;;;;;;4.53;1.20;;;;;;;-145.00;71.84;73036.72;5057478;28;20041;-76
2023/08/04 05:22:46;;;;;;;3.17;1.00;;;;;;;-145.00;70.88;73011.72;5045373;28;20053;-75
2023/08/04 05:25:13;;;;;;;1.88;1.00;;;;;;;-145.00;70.48;73001.31;5047113;28;20049;-77
2023/08/04 05:27:39;;;;;;;2.20;1.02;;;;;;;-145.00;69.90;72995.06;5048827;28;20101;-76
2023/08/04 05:30:07;;;;;;;2.83;0.80;;;;;;;-145.00;69.03;72988.81;5047010;28;20051;-75
2023/08/04 05:32:34;;;;;;;2.45;1.00;;;;;;;-145.00;69.58;72984.66;5055936;28;20052;-76
2023/08/04 05:35:00;;;;;;;1.65;0.90;;;;;;;-145.00;68.67;72988.81;5050077;28;20136;-76
2023/08/04 05:37:27;;;;;;;2.03;1.08;;;;;;;-145.00;68.73;72984.66;5057089;28;20047;-75
2023/08/04 05:39:55;;;;;;;2.65;1.00;;;;;;;-145.00;69.16;72980.50;5042760;28;20056;-75
2023/08/04 05:42:21;;;;;;;2.35;0.80;;;;;;;-145.00;69.12;72984.66;5057632;28;20064;-76
2023/08/04 05:44:48;;;;;;;2.05;1.00;;;;;;;-145.00;68.84;72980.50;5046267;28;20132;-76
2023/08/04 05:47:14;;;;;;;1.20;0.90;;;;;;;-145.00;68.93;72974.25;5048758;28;20048;-73
2023/08/04 05:49:41;;;;;;;2.58;0.90;;;;;;;-145.00;68.55;72970.09;5038045;28;20055;-73
2023/08/04 05:52:08;;;;;;;2.08;1.00;;;;;;;-145.00;68.47;72968.00;5036339;28;20045;-74
2023/08/04 05:54:34;;;;;;;2.40;1.00;;;;;;;-145.00;68.51;72963.84;5039648;28;20128;-74
2023/08/04 05:57:02;;;;;;;2.92;0.90;;;;;;;-145.00;67.75;72997.16;5038716;28;20508;-74
2023/08/04 05:59:29;;;;;;;2.85;0.90;;;;;;;-145.00;67.73;72972.16;5030214;28;20044;-73
2023/08/04 06:01:55;;;;;;;4.32;0.80;;;;;;;-145.00;67.52;72968.00;5047158;28;20059;-74
2023/08/04 06:04:22;;;;;;;2.42;1.00;;;;;;;-145.00;67.37;72980.50;5037337;28;20425;-74
2023/08/04 06:06:48;;;;;;;3.25;1.00;;;;;;;-145.00;66.72;72961.75;5038899;28;20408;-73
2023/08/04 06:09:15;;;;;;;3.80;1.00;;;;;;;-145.00;66.92;72951.34;5036256;28;20136;-73
2023/08/04 06:11:41;;;;;;;1.48;0.80;;;;;;;-145.00;68.18;73009.66;5036908;28;20053;-73
2023/08/04 06:14:09;;;;;;;2.60;1.00;;;;;;;-145.00;67.48;72972.16;5030408;28;20045;-73
2023/08/04 06:16:36;;;;;;;1.30;0.80;;;;;;;-145.00;67.52;72955.50;5031497;28;20042;-73
2023/08/04 06:19:02;;;;;;;3.95;1.00;;;;;;;-145.00;67.68;72955.50;5037894;28;20048;-73
2023/08/04 06:21:29;;;;;;;3.65;1.13;;;;;;;-145.00;66.65;72951.34;5041646;28;20045;-73
2023/08/04 06:23:55;;;;;;;3.30;1.05;;;;;;;-145.00;66.55;72938.88;5031216;28;20409;-73
2023/08/04 06:26:22;;;;;;;2.20;1.00;;;;;;;-145.00;66.97;72940.94;5030545;28;20049;-73
2023/08/04 06:28:48;;;;;;;2.97;1.10;;;;;;;-145.00;66.98;72988.81;5031404;28;20060;-73
2023/08/04 06:31:16;;;;;;;4.22;1.20;;;;;;;-145.00;66.89;72959.69;5030282;28;20047;-73
2023/08/04 06:33:43;;;;;;;1.35;0.90;;;;;;;-145.00;67.09;72980.50;5028052;28;20041;-73
2023/08/04 06:36:09;;;;;;;2.55;1.02;;;;;;;-145.00;66.88;72972.16;5030425;28;20045;-73
2023/08/04 06:38:36;;;;;;;3.03;0.93;;;;;;;-145.00;67.26;73011.72;5036710;28;20053;-74
2023/08/04 06:41:03;;;;;;;2.60;0.85;;;;;;;-145.00;67.20;73001.31;5027458;28;20041;-74
2023/08/04 06:43:29;;;;;;;2.42;0.93;;;;;;;-145.00;65.46;72968.00;5028465;28;20053;-76
2023/08/04 06:45:55;;;;;;;2.60;0.80;;;;;;;-145.00;64.63;72947.19;5031421;28;20049;-73
2023/08/04 06:48:24;;;;;;;2.88;1.00;;;;;;;-145.00;63.42;72938.88;5030634;28;20607;-77
2023/08/04 06:50:50;;;;;;;4.75;0.90;;;;;;;-145.00;65.59;72986.75;5031977;28;20041;-74
2023/08/04 06:53:17;;;;;;;1.60;0.80;;;;;;;-145.00;64.42;72953.44;5030625;28;20047;-76
2023/08/04 06:55:44;;;;;;;1.75;0.90;;;;;;;-145.00;64.40;72934.69;5023128;28;20128;-74
2023/08/04 06:58:10;;;;;;;3.78;0.88;;;;;;;-145.00;64.03;72943.03;5032266;28;20054;-74
2023/08/04 07:00:37;;;;;;;5.28;1.00;;;;;;;-145.00;63.95;72922.22;5031418;28;20049;-74
2023/08/04 07:03:03;;;;;;;3.88;0.90;;;;;;;-145.00;63.47;72918.03;5029715;28;20048;-74
2023/08/04 07:05:31;;;;;;;2.22;0.88;;;;;;;-145.00;63.67;72934.69;5033460;28;20052;-75
2023/08/04 07:07:57;;;;;;;2.97;0.90;;;;;;;-145.00;62.93;72918.03;5039368;28;20152;-75
2023/08/04 07:10:24;;;;;;;1.35;0.75;;;;;;;-145.00;62.10;72911.78;5033003;28;20394;-75
2023/08/04 07:12:50;;;;;;;0.95;0.65;;;;;;;-145.00;62.53;72905.56;5036160;28;20129;-76
2023/08/04 07:15:17;;;;;;;2.05;0.80;;;;;;;-145.00;63.19;72943.03;5045608;28;20080;-77
2023/08/04 07:17:43;;;;;;;2.10;0.80;;;;;;;-145.00;62.46;72934.69;5033373;28;20041;-77
2023/08/04 07:20:11;;;;;;;1.90;0.70;;;;;;;-145.00;62.14;72913.88;5041059;28;20045;-76
2023/08/04 07:22:39;;;;;;;1.20;0.60;;;;;;;-145.00;62.35;72897.22;5027248;28;20045;-75
2023/08/04 07:25:06;;;;;;;5.80;0.80;;;;;;;-145.00;64.94;72982.59;5036813;28;20055;-74
2023/08/04 07:27:32;;;;;;;3.55;0.88;;;;;;;-145.00;65.22;73015.88;5046642;28;20045;-75
2023/08/04 07:29:59;;;;;;;1.35;0.80;;;;;;;-145.00;64.43;72976.34;5033636;28;20045;-76
2023/08/04 07:32:25;;;;;;;2.67;0.90;;;;;;;-145.00;62.39;72936.78;5035809;28;20039;-74
2023/08/04 07:34:52;;;;;;;2.63;1.10;;;;;;;-145.00;61.93;72920.13;5029562;28;20050;-78
2023/08/04 07:37:18;;;;;;;2.13;0.80;;;;;;;-145.00;61.97;72909.72;5023047;28;20049;-78
2023/08/04 07:39:47;;;;;;;1.65;0.57;;;;;;;-145.00;61.89;72918.03;5043793;28;20044;-77
2023/08/04 07:42:14;;;;;;;3.20;0.70;;;;;;;-145.00;61.24;72893.06;5027351;28;20137;-76
2023/08/04 07:44:41;;;;;;;0.93;0.52;;;;;;;-145.00;60.64;72874.31;5032928;28;20049;-76
2023/08/04 07:47:07;;;;;;;1.92;0.73;;;;;;;-145.00;59.42;72872.25;5027790;28;20135;-76
2023/08/04 07:49:34;;;;;;;1.45;0.80;;;;;;;-145.00;60.12;72868.09;5024219;28;20045;-75
2023/08/04 07:52:00;;;;;;;2.95;0.93;;;;;;;-145.00;60.61;72849.34;5026756;28;20041;-74
2023/08/04 07:54:27;;;;;;;1.40;0.90;;;;;;;-145.00;60.39;72847.25;5030244;28;20056;-74
2023/08/04 07:56:54;;;;;;;2.97;0.88;;;;;;;-145.00;59.83;72834.78;5021268;28;20056;-75
2023/08/04 07:59:21;;;;;;;2.80;0.85;;;;;;;-145.00;62.30;72926.38;5026270;28;20508;-74
2023/08/04 08:01:48;;;;;;;1.90;0.77;;;;;;;-145.00;61.08;72934.69;5022038;28;20053;-73
2023/08/04 08:04:14;;;;;;;1.95;0.80;;;;;;;-145.00;61.99;72938.88;5016550;28;20058;-73
2023/08/04 08:06:41;;;;;;;1.13;0.70;;;;;;;-145.00;60.26;72934.69;5037283;28;20050;-75
2023/08/04 08:09:08;;;;;;;2.92;1.00;;;;;;;-145.00;60.94;72913.88;5025383;28;20045;-75
2023/08/04 08:11:34;;;;;;;3.63;0.98;;;;;;;-145.00;62.25;72957.59;5024076;28;20045;-75
2023/08/04 08:14:02;;;;;;;3.38;0.95;;;;;;;-145.00;62.46;72955.50;5028853;28;20615;-75
2023/08/04 08:16:28;;;;;;;2.22;0.60;;;;;;;-145.00;60.79;72930.53;5026490;28;20048;-76
2023/08/04 08:18:55;;;;;;;1.48;0.98;;;;;;;-145.00;61.39;72940.94;5030090;28;20042;-75
2023/08/04 08:21:21;;;;;;;2.42;0.90;;;;;;;-145.00;60.93;72918.03;5025400;28;20417;-73
2023/08/04 08:23:48;;;;;;;1.60;0.73;;;;;;;-145.00;60.32;72899.31;5030246;28;20045;-75
2023/08/04 08:26:14;;;;;;;2.75;1.10;;;;;;;-145.00;60.78;72918.03;5022406;28;20096;-77
2023/08/04 08:28:41;;;;;;;1.52;0.65;;;;;;;-145.00;59.92;72868.09;5029982;28;20056;-74
2023/08/04 08:31:09;;;;;;;5.03;0.80;;;;;;;-145.00;60.40;72909.72;5028873;28;20512;-73
2023/08/04 08:33:37;;;;;;;1.92;0.73;;;;;;;-145.00;58.88;72893.06;5028977;28;20033;-72
2023/08/04 08:36:04;;;;;;;2.20;0.90;;;;;;;-145.00;58.90;72874.31;5029014;28;20405;-73
2023/08/04 08:38:32;;;;;;;5.20;0.80;;;;;;;-145.00;58.42;72872.25;5029172;28;20050;-72
2023/08/04 08:40:58;;;;;;;1.85;0.55;;;;;;;-145.00;58.58;72820.19;5029227;28;20041;-73
2023/08/04 08:43:25;;;;;;;1.52;0.75;;;;;;;-145.00;59.71;72870.16;5022871;28;20567;-73
2023/08/04 08:45:52;;;;;;;2.78;0.75;;;;;;;-145.00;58.52;72868.09;5029289;28;20776;-75
2023/08/04 08:48:21;;;;;;;2.92;0.65;;;;;;;-145.00;58.01;72851.44;5028744;28;20065;-75
2023/08/04 08:50:55;;;;;;;3.08;0.85;;;;;;;-145.00;57.60;72811.88;5029287;28;20045;-74
2023/08/04 08:53:26;;;;;;;2.38;0.95;;;;;;;-145.00;57.51;72793.13;5028918;28;20058;-74
2023/08/04 08:55:52;;;;;;;4.03;0.80;;;;;;;-145.00;56.19;72759.81;5027446;28;20499;-73
2023/08/04 08:58:20;;;;;;;1.95;0.80;;;;;;;-145.00;57.11;72720.28;5029310;28;20042;-74
2023/08/04 09:00:47;;;;;;;3.38;0.77;;;;;;;-145.00;56.67;72709.88;5021529;28;20563;-75
2023/08/04 09:03:14;;;;;;;1.35;0.77;;;;;;;-145.00;56.03;72684.88;5028561;28;20136;-76
2023/08/04 09:05:41;;;;;;;3.30;1.00;;;;;;;-145.00;54.94;72714.03;5021412;28;20084;-75
2023/08/04 09:08:08;;;;;;;2.00;0.85;;;;;;;-145.00;54.32;72716.13;5029005;28;20037;-76
2023/08/04 09:10:37;;;;;;;1.15;0.63;;;;;;;-145.00;54.67;72647.41;5028316;28;20044;-76
2023/08/04 09:13:08;;;;;;;2.95;0.90;;;;;;;-145.00;54.00;72618.28;5028554;28;20072;-76
2023/08/04 09:15:35;;;;;;;2.22;0.73;;;;;;;-145.00;52.22;72647.41;5028561;28;20452;-73
2023/08/04 09:18:06;;;;;;;5.07;0.77;;;;;;;-145.00;53.49;72655.75;5026226;28;20052;-72
2023/08/04 09:20:32;;;;;;;2.53;0.80;;;;;;;-145.00;52.52;72676.56;5021425;28;20065;-73
2023/08/04 09:23:01;;;;;;;2.70;0.90;;;;;;;-145.00;53.54;72622.44;5026298;28;20055;-73
2023/08/04 09:25:28;;;;;;;1.23;0.63;;;;;;;-145.00;51.34;72589.13;5030760;28;20132;-72
2023/08/04 09:27:55;;;;;;;1.17;0.80;;;;;;;-145.00;50.22;72574.56;5032560;28;20041;-73
2023/08/04 09:30:22;;;;;;;2.90;0.80;;;;;;;-145.00;50.40;72551.66;5031912;28;20049;-73
2023/08/04 09:32:50;;;;;;;0.80;0.55;;;;;;;-145.00;50.96;72584.97;5031896;28;20492;-73
2023/08/04 09:35:17;;;;;;;2.25;0.98;;;;;;;-145.00;50.70;72547.50;5031581;28;20049;-74
2023/08/04 09:37:44;;;;;;;1.88;0.70;;;;;;;-145.00;50.55;72555.81;5031771;28;20049;-74
2023/08/04 09:40:17;;;;;;;2.25;0.70;;;;;;;-145.00;49.58;72497.53;5036907;28;20069;-74
2023/08/04 09:42:44;;;;;;;2.10;0.70;;;;;;;-145.00;48.95;72476.72;5033745;28;20051;-73
2023/08/04 09:45:14;;;;;;;1.10;0.80;;;;;;;-145.00;49.93;72501.69;5029057;28;20394;-74
2023/08/04 09:47:40;;;;;;;2.38;0.75;;;;;;;-145.00;50.38;72507.94;5029740;28;20076;-75
2023/08/04 09:50:10;;;;;;;2.50;0.93;;;;;;;-145.00;50.43;72485.06;5031498;28;20137;-74
2023/08/04 09:52:37;;;;;;;3.28;0.80;;;;;;;-145.00;49.54;72464.22;5032037;28;20409;-74
2023/08/04 09:55:08;;;;;;;2.97;1.08;;;;;;;-145.00;49.42;72441.34;5031556;28;20045;-74
2023/08/04 09:57:36;;;;;;;3.38;1.00;;;;;;;-145.00;49.76;72526.69;5031797;28;20037;-75
2023/08/04 10:00:05;;;;;;;1.83;0.70;;;;;;;-145.00;49.93;72532.94;5031153;28;20049;-75
2023/08/04 10:02:32;;;;;;;5.68;1.08;;;;;;;-145.00;49.08;72522.53;5031759;28;20049;-75
2023/08/04 10:05:00;;;;;;;1.58;0.80;;;;;;;-145.00;49.81;72510.03;5032060;28;20499;-72
2023/08/04 10:07:29;;;;;;;3.30;1.08;;;;;;;-145.00;49.35;72568.31;5031842;28;20048;-73
2023/08/04 10:09:56;;;;;;;2.60;0.98;;;;;;;-145.00;51.20;72647.41;5031351;28;20064;-75
2023/08/04 10:12:23;;;;;;;2.33;0.80;;;;;;;-145.00;50.81;72593.28;5031011;28;20045;-73
2023/08/04 10:14:51;;;;;;;2.22;0.90;;;;;;;-145.00;51.02;72539.16;5031548;28;20128;-73
2023/08/04 10:17:19;;;;;;;2.05;0.90;;;;;;;-145.00;48.91;72507.94;5031230;28;20060;-73
2023/08/04 10:19:46;;;;;;;3.25;1.02;;;;;;;-145.00;50.17;72487.13;5030337;28;20071;-75
2023/08/04 10:22:13;;;;;;;3.00;0.90;;;;;;;-145.00;48.71;72497.53;5030508;28;20071;-74
2023/08/04 10:24:43;;;;;;;2.28;1.08;;;;;;;-145.00;49.06;72495.47;5031465;28;20145;-72
2023/08/04 10:27:15;;;;;;;1.60;1.00;;;;;;;-145.00;48.66;72472.56;5030809;28;20073;-74
2023/08/04 10:29:42;;;;;;;1.92;0.80;;;;;;;-145.00;48.41;72472.56;5030348;28;20072;-74
2023/08/04 10:32:10;;;;;;;4.72;1.08;;;;;;;-145.00;47.98;72453.81;5023536;28;20037;-74
2023/08/04 10:34:41;;;;;;;4.00;0.80;;;;;;;-145.00;47.54;72430.94;5031114;28;20060;-73
2023/08/04 10:37:14;;;;;;;1.95;0.93;;;;;;;-145.00;46.59;72430.94;5027556;28;20497;-73
2023/08/04 10:39:42;;;;;;;4.28;0.90;;;;;;;-145.00;47.63;72428.84;5031769;28;20076;-76
2023/08/04 10:42:15;;;;;;;1.38;0.80;;;;;;;-145.00;47.82;72412.19;5032520;28;20056;-77
2023/08/04 10:44:50;;;;;;;2.05;0.77;;;;;;;-145.00;47.70;72405.94;5032283;28;20050;-77
2023/08/04 10:47:29;;;;;;;2.03;0.90;;;;;;;-145.00;46.56;72397.63;5030910;28;20046;-77
2023/08/04 10:49:58;;;;;;;1.30;0.70;;;;;;;-145.00;46.22;72447.59;5031600;28;20055;-76
2023/08/04 10:52:24;;;;;;;1.38;0.77;;;;;;;-145.00;46.30;72439.25;5031712;28;20045;-76
2023/08/04 10:54:51;;;;;;;2.00;1.00;;;;;;;-145.00;48.57;72485.06;5029076;28;20045;-76
2023/08/04 10:57:18;;;;;;;3.05;0.90;;;;;;;-145.00;46.62;72445.50;5031449;28;20056;-75
2023/08/04 10:59:45;;;;;;;2.53;0.90;;;;;;;-145.00;46.23;72430.94;5032058;28;20050;-76
2023/08/04 11:02:11;;;;;;;3.88;0.88;;;;;;;-145.00;44.84;72439.25;5031427;28;20037;-77
2023/08/04 11:04:42;;;;;;;0.98;0.70;;;;;;;-145.00;46.58;72451.75;5029110;28;20053;-78
2023/08/04 11:07:10;;;;;;;1.13;0.50;;;;;;;-145.00;44.85;72445.50;5032919;28;20093;-77
2023/08/04 11:09:36;;;;;;;2.20;0.90;;;;;;;-145.00;46.84;72460.06;5032178;28;20072;-76
2023/08/04 11:12:03;;;;;;;1.35;0.82;;;;;;;-145.00;46.33;72458.00;5031623;28;20088;-77
2023/08/04 11:14:30;;;;;;;1.80;0.80;;;;;;;-145.00;46.80;72518.34;5031700;28;20472;-76
2023/08/04 11:17:00;;;;;;;3.15;1.40;;;;;;;-145.00;47.01;72507.94;5031187;28;20053;-77